Time;durP1;ratioP1;P1;durP2;ratioP2;P2;SDS_P1;SDS_P2;PMS_P1;PMS_P2;Temp;Humidity;BMP_temperature;BMP_pressure;BME280_temperature;BME280_humidity;BME280_pressure;Samples;Min_cycle;Max_cycle;Signal;HPM_P1;HPM_P2
2021/12/30 00:00:16;;;;;;;52.37;29.20;;;;;;;7.04;nan;-24013.66;5093582;28;20584;-69
2021/12/30 00:02:42;;;;;;;44.80;26.10;;;;;;;6.62;nan;-24001.88;5093281;28;20268;-68
2021/12/30 00:05:08;;;;;;;33.87;21.23;;;;;;;6.92;nan;-24010.25;5093072;28;20680;-68
2021/12/30 00:07:34;;;;;;;32.57;19.70;;;;;;;7.29;nan;-24020.47;5093406;28;20177;-68
2021/12/30 00:10:00;;;;;;;30.13;18.33;;;;;;;7.09;nan;-24014.94;5093046;28;20510;-69
2021/12/30 00:12:25;;;;;;;24.97;16.23;;;;;;;6.91;nan;-24009.97;5093601;28;20184;-68
2021/12/30 00:14:51;;;;;;;22.97;14.57;;;;;;;7.18;nan;-24017.34;5093103;28;20277;-69
2021/12/30 00:17:16;;;;;;;22.37;13.77;;;;;;;7.03;nan;-24013.22;5092336;28;20713;-68
2021/12/30 00:19:42;;;;;;;19.70;12.93;;;;;;;7.16;nan;-24016.78;5092680;28;20281;-68
2021/12/30 00:22:08;;;;;;;20.63;12.83;;;;;;;7.66;nan;-24030.81;5092844;28;20187;-68
2021/12/30 00:24:33;;;;;;;18.90;12.33;;;;;;;7.16;nan;-24016.78;5093290;28;20181;-69
2021/12/30 00:26:59;;;;;;;17.40;10.80;;;;;;;7.16;nan;-24016.91;5091749;28;20234;-68
2021/12/30 00:29:24;;;;;;;16.63;10.40;;;;;;;7.66;nan;-24030.81;5093170;28;20199;-68
2021/12/30 00:31:50;;;;;;;13.50;9.63;;;;;;;7.76;nan;-24033.78;5093707;28;20651;-68
2021/12/30 00:34:15;;;;;;;12.70;9.00;;;;;;;7.40;nan;-24023.72;5093112;28;20185;-68
2021/12/30 00:36:41;;;;;;;15.63;10.33;;;;;;;7.73;nan;-24032.94;5093142;28;20192;-68
2021/12/30 00:39:07;;;;;;;15.30;10.67;;;;;;;7.94;nan;-24038.88;5092764;28;20209;-68
2021/12/30 00:41:32;;;;;;;15.13;10.10;;;;;;;7.73;nan;-24032.94;5090675;28;20185;-68
2021/12/30 00:43:58;;;;;;;15.10;10.60;;;;;;;8.02;nan;-24040.88;5092591;28;20177;-68
2021/12/30 00:46:23;;;;;;;14.67;10.07;;;;;;;7.40;nan;-24023.59;5092507;28;20176;-68
2021/12/30 00:48:48;;;;;;;16.60;10.17;;;;;;;7.77;nan;-24034.06;5091695;28;20310;-68
2021/12/30 00:51:14;;;;;;;15.40;10.53;;;;;;;7.94;nan;-24038.88;5092736;28;20248;-68
2021/12/30 00:53:41;;;;;;;16.03;9.63;;;;;;;7.55;nan;-24027.84;5092928;28;20188;-67
2021/12/30 00:56:06;;;;;;;12.23;8.47;;;;;;;7.82;nan;-24035.47;5093310;28;20161;-68
2021/12/30 00:58:32;;;;;;;14.60;9.30;;;;;;;7.86;nan;-24036.63;5090755;28;20173;-67
2021/12/30 01:00:59;;;;;;;11.47;8.07;;;;;;;8.00;nan;-24040.44;5091110;28;20546;-68
2021/12/30 01:03:25;;;;;;;12.93;8.07;;;;;;;8.03;nan;-24041.16;5092107;28;20272;-68
2021/12/30 01:05:51;;;;;;;10.77;7.90;;;;;;;7.59;nan;-24028.97;5091442;28;20177;-68
2021/12/30 01:08:17;;;;;;;11.00;7.70;;;;;;;7.62;nan;-24029.81;5091428;28;20610;-67
2021/12/30 01:10:43;;;;;;;11.77;7.83;;;;;;;7.93;nan;-24038.47;5091690;28;20562;-68
2021/12/30 01:13:16;;;;;;;10.27;7.50;;;;;;;8.00;nan;-24040.59;5089856;28;20293;-68
2021/12/30 01:15:55;;;;;;;11.53;7.23;;;;;;;8.03;nan;-24041.16;5092616;28;20180;-67
2021/12/30 01:20:47;;;;;;;10.53;6.97;;;;;;;7.51;nan;-24026.69;5091276;28;20208;-68
2021/12/30 01:23:13;;;;;;;8.67;6.80;;;;;;;7.68;nan;-24031.53;5077900;28;20608;-68
2021/12/30 01:25:39;;;;;;;8.47;6.50;;;;;;;8.20;nan;-24046.09;5090478;28;20189;-68
2021/12/30 01:28:04;;;;;;;8.90;6.23;;;;;;;8.18;nan;-24045.41;5091570;28;20235;-68
2021/12/30 01:30:29;;;;;;;8.83;6.17;;;;;;;7.64;nan;-24030.25;5091775;28;20563;-68
2021/12/30 01:32:55;;;;;;;8.00;5.70;;;;;;;7.69;nan;-24031.81;5091744;28;20524;-68
2021/12/30 01:35:23;;;;;;;7.50;5.83;;;;;;;7.89;nan;-24037.47;5092198;28;20192;-68
2021/12/30 01:37:55;;;;;;;7.83;6.10;;;;;;;7.75;nan;-24033.50;5071818;28;20554;-68
2021/12/30 01:40:21;;;;;;;8.00;5.90;;;;;;;7.47;nan;-24025.56;5077814;28;20215;-68
2021/12/30 01:42:48;;;;;;;8.67;5.97;;;;;;;7.70;nan;-24032.09;5092597;28;20287;-68
2021/12/30 01:45:14;;;;;;;8.97;6.10;;;;;;;7.44;nan;-24024.88;5091474;28;20185;-69
2021/12/30 01:47:47;;;;;;;8.17;6.00;;;;;;;7.98;nan;-24040.03;5092147;28;20300;-68
2021/12/30 01:50:13;;;;;;;7.57;5.93;;;;;;;7.48;nan;-24025.84;5091234;28;20217;-68
2021/12/30 01:52:38;;;;;;;8.33;6.10;;;;;;;7.99;nan;-24040.31;5091619;28;20243;-68
2021/12/30 01:55:04;;;;;;;7.47;6.00;;;;;;;7.70;nan;-24031.94;5090562;28;20502;-68
2021/12/30 01:57:30;;;;;;;7.67;5.77;;;;;;;7.90;nan;-24037.75;5091683;28;20265;-69
2021/12/30 01:59:55;;;;;;;7.60;5.67;;;;;;;7.79;nan;-24034.50;5091232;28;20299;-68
2021/12/30 02:02:21;;;;;;;6.73;5.40;;;;;;;7.73;nan;-24032.94;5075434;28;20201;-68
2021/12/30 02:04:46;;;;;;;6.13;5.03;;;;;;;7.67;nan;-24031.25;5091254;28;20535;-68
2021/12/30 02:07:13;;;;;;;7.03;5.00;;;;;;;7.48;nan;-24026.00;5091679;28;20192;-68
2021/12/30 02:09:39;;;;;;;7.43;5.10;;;;;;;7.45;nan;-24025.00;5089912;28;20230;-68
2021/12/30 02:12:05;;;;;;;6.73;4.97;;;;;;;7.84;nan;-24036.06;5091850;28;20603;-68
2021/12/30 02:14:34;;;;;;;6.30;5.07;;;;;;;7.75;nan;-24033.50;5091093;28;20185;-68
2021/12/30 02:17:00;;;;;;;5.80;4.67;;;;;;;7.63;nan;-24030.09;5091251;28;20189;-68
2021/12/30 02:19:25;;;;;;;6.13;4.97;;;;;;;7.43;nan;-24024.44;5092039;28;20511;-68
2021/12/30 02:21:51;;;;;;;7.47;5.20;;;;;;;7.49;nan;-24026.13;5093064;28;20173;-68
2021/12/30 02:24:16;;;;;;;6.93;4.83;;;;;;;7.96;nan;-24039.44;5095369;28;20568;-68
2021/12/30 02:26:41;;;;;;;6.37;5.00;;;;;;;7.97;nan;-24039.72;5095800;28;20215;-68
2021/12/30 02:29:07;;;;;;;7.60;4.83;;;;;;;7.86;nan;-24036.47;5096001;28;20226;-68
2021/12/30 02:31:32;;;;;;;6.20;4.67;;;;;;;7.44;nan;-24024.72;5095834;28;20165;-68
2021/12/30 02:33:59;;;;;;;7.20;4.70;;;;;;;7.44;nan;-24024.72;5095743;28;20181;-68
2021/12/30 02:36:28;;;;;;;8.80;4.67;;;;;;;7.87;nan;-24036.91;5094294;28;20182;-68
2021/12/30 02:38:54;;;;;;;6.43;5.00;;;;;;;8.07;nan;-24042.28;5082511;28;20224;-68
2021/12/30 02:41:20;;;;;;;5.73;4.77;;;;;;;7.57;nan;-24028.25;5095593;28;20185;-68
2021/12/30 02:43:47;;;;;;;6.37;4.87;;;;;;;7.81;nan;-24035.06;5095692;28;20197;-69
2021/12/30 02:46:13;;;;;;;6.00;4.90;;;;;;;7.45;nan;-24025.00;5094853;28;20177;-68
2021/12/30 02:48:41;;;;;;;5.83;4.60;;;;;;;7.70;nan;-24032.09;5094812;28;20601;-68
2021/12/30 02:51:10;;;;;;;6.40;4.90;;;;;;;7.39;nan;-24023.31;5095400;28;20221;-68
2021/12/30 02:53:36;;;;;;;5.40;4.57;;;;;;;7.44;nan;-24024.88;5093034;28;20189;-67
2021/12/30 02:56:04;;;;;;;7.60;4.67;;;;;;;7.35;nan;-24022.16;5095337;28;20212;-68
2021/12/30 02:58:30;;;;;;;6.67;4.57;;;;;;;7.75;nan;-24033.38;5093878;28;20177;-68
2021/12/30 03:01:00;;;;;;;5.73;4.43;;;;;;;7.68;nan;-24031.53;5078961;28;20707;-67
2021/12/30 03:03:25;;;;;;;5.27;4.20;;;;;;;7.32;nan;-24021.31;5095138;28;20570;-67
2021/12/30 03:05:59;;;;;;;5.97;4.70;;;;;;;7.61;nan;-24029.53;5095366;28;20173;-68
2021/12/30 03:08:25;;;;;;;5.53;4.67;;;;;;;7.81;nan;-24035.06;5077338;28;20274;-68
2021/12/30 03:10:50;;;;;;;7.20;4.57;;;;;;;7.30;nan;-24020.88;5095062;28;20613;-68
2021/12/30 03:13:19;;;;;;;5.00;4.50;;;;;;;7.81;nan;-24035.22;5094036;28;20560;-68
2021/12/30 03:15:46;;;;;;;5.47;4.70;;;;;;;7.33;nan;-24021.59;5094542;28;20687;-68
2021/12/30 03:18:12;;;;;;;5.30;4.47;;;;;;;7.54;nan;-24027.69;5094898;28;20180;-68
2021/12/30 03:20:42;;;;;;;5.80;4.50;;;;;;;7.62;nan;-24029.69;5094915;28;20266;-69
2021/12/30 03:23:07;;;;;;;5.90;4.80;;;;;;;7.72;nan;-24032.66;5078564;28;20276;-68
2021/12/30 03:25:33;;;;;;;6.13;4.60;;;;;;;7.70;nan;-24032.09;5094712;28;20334;-68
2021/12/30 03:27:59;;;;;;;6.43;4.80;;;;;;;7.46;nan;-24025.28;5095221;28;20173;-68
2021/12/30 03:30:24;;;;;;;5.90;4.60;;;;;;;7.38;nan;-24023.00;5093905;28;20189;-68
2021/12/30 03:32:50;;;;;;;5.60;4.83;;;;;;;7.55;nan;-24027.84;5076369;28;20181;-68
2021/12/30 03:35:16;;;;;;;4.90;4.20;;;;;;;7.42;nan;-24024.28;5094045;28;20177;-68
2021/12/30 03:37:42;;;;;;;5.50;4.70;;;;;;;7.23;nan;-24018.91;5094118;28;20170;-68
2021/12/30 03:40:13;;;;;;;6.43;4.77;;;;;;;7.60;nan;-24029.09;5093715;28;20204;-68
2021/12/30 03:42:38;;;;;;;6.90;4.83;;;;;;;7.57;nan;-24028.41;5085785;28;20173;-68
2021/12/30 03:45:08;;;;;;;6.43;5.27;;;;;;;7.59;nan;-24028.97;5093216;28;20193;-69
2021/12/30 03:47:37;;;;;;;6.03;4.80;;;;;;;7.51;nan;-24026.84;5092642;28;20208;-69
2021/12/30 03:50:05;;;;;;;6.23;4.87;;;;;;;7.44;nan;-24024.72;5080180;28;20304;-68
2021/12/30 03:52:31;;;;;;;5.67;4.87;;;;;;;7.37;nan;-24022.72;5094354;28;20281;-68
2021/12/30 03:54:56;;;;;;;5.80;4.90;;;;;;;7.27;nan;-24020.03;5092941;28;20713;-69
2021/12/30 03:57:22;;;;;;;5.50;4.90;;;;;;;7.38;nan;-24023.00;5093257;28;20177;-68
2021/12/30 03:59:48;;;;;;;6.23;4.80;;;;;;;7.49;nan;-24026.13;5080102;28;20630;-68
2021/12/30 04:02:13;;;;;;;6.53;5.13;;;;;;;7.55;nan;-24027.97;5092329;28;20203;-68
2021/12/30 04:04:39;;;;;;;6.57;4.87;;;;;;;7.38;nan;-24023.00;5080271;28;20276;-68
2021/12/30 04:07:04;;;;;;;6.10;5.07;;;;;;;7.22;nan;-24018.63;5093343;28;20181;-68
2021/12/30 04:09:30;;;;;;;7.30;4.90;;;;;;;7.26;nan;-24019.63;5093934;28;20189;-68
2021/12/30 04:11:56;;;;;;;5.80;4.60;;;;;;;7.07;nan;-24014.50;5093729;28;20181;-68
2021/12/30 04:14:26;;;;;;;5.67;4.90;;;;;;;7.35;nan;-24022.16;5094042;28;20176;-68
2021/12/30 04:16:54;;;;;;;5.50;4.60;;;;;;;6.88;nan;-24008.97;5093879;28;20166;-68
2021/12/30 04:19:20;;;;;;;7.90;4.90;;;;;;;7.35;nan;-24022.16;5092959;28;20209;-68
2021/12/30 04:21:45;;;;;;;6.27;5.00;;;;;;;6.97;nan;-24011.53;5092821;28;20192;-68
2021/12/30 04:24:11;;;;;;;5.20;4.43;;;;;;;7.20;nan;-24018.06;5091074;28;20182;-68
2021/12/30 04:26:37;;;;;;;5.60;5.00;;;;;;;7.39;nan;-24023.31;5092578;28;20188;-69
2021/12/30 04:29:04;;;;;;;7.07;5.20;;;;;;;6.93;nan;-24010.41;5093681;28;20196;-68
2021/12/30 04:31:31;;;;;;;6.40;5.00;;;;;;;7.04;nan;-24013.50;5092170;28;20276;-68
2021/12/30 04:33:58;;;;;;;5.97;4.87;;;;;;;7.18;nan;-24017.34;5093587;28;20180;-68
2021/12/30 04:36:24;;;;;;;5.53;4.50;;;;;;;7.44;nan;-24024.72;5092383;28;20177;-68
2021/12/30 04:38:50;;;;;;;6.83;4.60;;;;;;;7.38;nan;-24023.00;5090075;28;20181;-68
2021/12/30 04:41:15;;;;;;;5.10;4.60;;;;;;;7.18;nan;-24017.47;5093507;28;20180;-68
2021/12/30 04:43:41;;;;;;;6.70;5.10;;;;;;;7.36;nan;-24022.59;5092473;28;20276;-68
2021/12/30 04:46:06;;;;;;;5.53;4.93;;;;;;;6.96;nan;-24011.38;5090433;28;20656;-69
2021/12/30 04:48:32;;;;;;;7.10;4.67;;;;;;;7.23;nan;-24018.75;5092385;28;20624;-68
2021/12/30 04:50:57;;;;;;;5.23;4.67;;;;;;;7.08;nan;-24014.78;5092176;28;20229;-69
2021/12/30 04:53:23;;;;;;;7.23;4.40;;;;;;;7.26;nan;-24019.63;5092196;28;20177;-68
2021/12/30 04:55:49;;;;;;;6.17;4.57;;;;;;;7.31;nan;-24021.16;5091626;28;20204;-68
2021/12/30 04:58:16;;;;;;;4.77;4.10;;;;;;;6.76;nan;-24005.56;5092904;28;20204;-68
2021/12/30 05:00:43;;;;;;;4.57;3.83;;;;;;;6.87;nan;-24008.84;5093029;28;20205;-68
2021/12/30 05:03:10;;;;;;;4.33;3.90;;;;;;;7.14;nan;-24016.22;5092329;28;20530;-67
2021/12/30 05:05:38;;;;;;;4.93;4.00;;;;;;;6.84;nan;-24008.00;5092532;28;20563;-68
2021/12/30 05:08:04;;;;;;;4.50;3.80;;;;;;;7.19;nan;-24017.63;5091515;28;20182;-68
2021/12/30 05:10:30;;;;;;;4.70;3.90;;;;;;;7.07;nan;-24014.50;5092033;28;20544;-68
2021/12/30 05:12:55;;;;;;;5.07;3.97;;;;;;;7.26;nan;-24019.63;5089258;28;20186;-68
2021/12/30 05:15:21;;;;;;;4.83;4.13;;;;;;;7.05;nan;-24013.94;5092380;28;20250;-68
2021/12/30 05:17:46;;;;;;;4.43;3.80;;;;;;;7.22;nan;-24018.63;5092219;28;21109;-68
2021/12/30 05:20:12;;;;;;;5.00;3.77;;;;;;;6.86;nan;-24008.41;5094591;28;20556;-68
2021/12/30 05:22:39;;;;;;;4.00;3.60;;;;;;;6.94;nan;-24010.81;5090175;28;21245;-69
2021/12/30 05:25:05;;;;;;;4.33;3.70;;;;;;;6.99;nan;-24012.09;5090863;28;20612;-69
2021/12/30 05:27:31;;;;;;;4.63;3.50;;;;;;;6.98;nan;-24011.94;5087135;28;20188;-68
2021/12/30 05:29:56;;;;;;;3.57;3.27;;;;;;;6.71;nan;-24004.28;5090477;28;20185;-68
2021/12/30 05:32:22;;;;;;;3.83;3.27;;;;;;;6.69;nan;-24003.72;5090934;28;20180;-68
2021/12/30 05:34:47;;;;;;;3.20;2.90;;;;;;;6.98;nan;-24011.94;5090770;28;20215;-68
2021/12/30 05:37:12;;;;;;;3.37;3.07;;;;;;;6.53;nan;-23999.19;5090969;28;20174;-68
2021/12/30 05:39:41;;;;;;;3.30;3.00;;;;;;;6.50;nan;-23998.34;5091162;28;20668;-68
2021/12/30 05:42:07;;;;;;;3.33;3.00;;;;;;;6.77;nan;-24006.00;5087869;28;20238;-68
2021/12/30 05:44:32;;;;;;;3.20;2.90;;;;;;;6.63;nan;-24002.16;5090898;28;20173;-68
2021/12/30 05:46:57;;;;;;;3.00;2.70;;;;;;;6.80;nan;-24006.72;5090056;28;20188;-68
2021/12/30 05:49:23;;;;;;;3.60;2.90;;;;;;;6.54;nan;-23999.47;5090274;28;20189;-68
2021/12/30 05:51:48;;;;;;;3.20;2.90;;;;;;;7.07;nan;-24014.38;5091376;28;20307;-68
2021/12/30 05:54:14;;;;;;;4.07;3.30;;;;;;;7.01;nan;-24012.81;5091112;28;20648;-68
2021/12/30 05:56:40;;;;;;;3.67;3.20;;;;;;;7.01;nan;-24012.66;5089958;28;20196;-68
2021/12/30 05:59:05;;;;;;;4.20;3.20;;;;;;;6.45;nan;-23996.91;5090465;28;20269;-68
2021/12/30 06:01:31;;;;;;;4.90;3.70;;;;;;;6.96;nan;-24011.25;5090556;28;20279;-68
2021/12/30 06:03:56;;;;;;;4.67;3.33;;;;;;;6.04;nan;-23985.56;5091154;28;20192;-68
2021/12/30 06:06:24;;;;;;;3.63;3.03;;;;;;;6.90;nan;-24009.69;5089963;28;20268;-68
2021/12/30 06:08:50;;;;;;;4.10;3.30;;;;;;;6.95;nan;-24011.09;5090140;28;20260;-68
2021/12/30 06:11:16;;;;;;;3.70;3.07;;;;;;;7.09;nan;-24014.94;5087395;28;20183;-68
2021/12/30 06:13:42;;;;;;;3.20;2.90;;;;;;;6.58;nan;-24000.59;5091002;28;20267;-68
2021/12/30 06:16:08;;;;;;;4.50;3.07;;;;;;;6.66;nan;-24003.00;5090801;28;20250;-68
2021/12/30 06:18:33;;;;;;;3.70;3.00;;;;;;;6.89;nan;-24009.25;5090696;28;20181;-69
2021/12/30 06:20:59;;;;;;;3.10;2.67;;;;;;;7.03;nan;-24013.38;5090672;28;20197;-68
2021/12/30 06:23:24;;;;;;;3.10;2.73;;;;;;;6.74;nan;-24005.16;5089756;28;20255;-69
2021/12/30 06:25:50;;;;;;;3.00;2.67;;;;;;;6.85;nan;-24008.13;5091427;28;20260;-69
2021/12/30 06:28:15;;;;;;;2.90;2.53;;;;;;;6.88;nan;-24009.13;5090309;28;20226;-69
2021/12/30 06:30:41;;;;;;;4.27;2.60;;;;;;;7.10;nan;-24015.34;5090871;28;20671;-68
2021/12/30 06:33:07;;;;;;;4.07;2.77;;;;;;;6.96;nan;-24011.38;5090345;28;20182;-69
2021/12/30 06:35:34;;;;;;;4.03;2.73;;;;;;;6.33;nan;-23993.66;5089745;28;20189;-69
2021/12/30 06:38:00;;;;;;;3.20;2.80;;;;;;;6.65;nan;-24002.72;5091307;28;20617;-69
2021/12/30 06:40:26;;;;;;;3.37;2.60;;;;;;;6.52;nan;-23998.91;5086910;28;20250;-68
2021/12/30 06:42:51;;;;;;;2.97;2.67;;;;;;;6.83;nan;-24007.69;5092083;28;20181;-69
2021/12/30 06:45:17;;;;;;;3.60;2.73;;;;;;;7.28;nan;-24020.19;5090943;28;20185;-68
2021/12/30 06:47:47;;;;;;;3.20;2.90;;;;;;;6.73;nan;-24004.88;5090756;28;20181;-67
2021/12/30 06:50:14;;;;;;;3.93;2.63;;;;;;;7.09;nan;-24015.06;5090031;28;20308;-67
2021/12/30 06:52:41;;;;;;;4.60;2.80;;;;;;;7.13;nan;-24015.94;5084822;28;20177;-68
2021/12/30 06:55:08;;;;;;;3.63;2.90;;;;;;;7.20;nan;-24017.91;5090624;28;20548;-68
2021/12/30 06:57:34;;;;;;;3.00;2.70;;;;;;;6.64;nan;-24002.44;5077663;28;20527;-68
2021/12/30 07:00:00;;;;;;;3.17;2.87;;;;;;;7.15;nan;-24016.50;5090823;28;20215;-68
2021/12/30 07:02:26;;;;;;;3.93;3.00;;;;;;;6.61;nan;-24001.47;5089060;28;20242;-68
2021/12/30 07:04:51;;;;;;;3.33;3.03;;;;;;;7.08;nan;-24014.78;5090542;28;20261;-68
2021/12/30 07:07:17;;;;;;;3.67;2.90;;;;;;;6.79;nan;-24006.44;5089487;28;20178;-67
2021/12/30 07:09:42;;;;;;;3.30;2.90;;;;;;;6.48;nan;-23997.91;5093859;28;20212;-67
2021/12/30 07:12:08;;;;;;;3.50;3.10;;;;;;;6.61;nan;-24001.47;5094550;28;20181;-69
2021/12/30 07:14:34;;;;;;;4.13;3.10;;;;;;;6.70;nan;-24003.88;5095177;28;20257;-67
2021/12/30 07:16:59;;;;;;;6.47;3.30;;;;;;;7.05;nan;-24013.81;5094702;28;20620;-67
2021/12/30 07:19:25;;;;;;;5.23;3.10;;;;;;;6.86;nan;-24008.41;5094588;28;20231;-67
2021/12/30 07:21:50;;;;;;;3.93;3.10;;;;;;;6.96;nan;-24011.38;5093278;28;20268;-68
2021/12/30 07:24:16;;;;;;;3.63;3.03;;;;;;;6.84;nan;-24007.84;5093986;28;20202;-68
2021/12/30 07:26:42;;;;;;;4.33;2.97;;;;;;;6.50;nan;-23998.34;5094612;28;20186;-68
2021/12/30 07:29:07;;;;;;;3.13;2.77;;;;;;;6.81;nan;-24007.00;5093837;28;20178;-68
2021/12/30 07:31:33;;;;;;;5.53;3.13;;;;;;;6.66;nan;-24002.88;5093260;28;20214;-68
2021/12/30 07:33:59;;;;;;;3.57;3.00;;;;;;;6.87;nan;-24008.69;5093489;28;20190;-68
2021/12/30 07:36:24;;;;;;;3.90;3.10;;;;;;;7.23;nan;-24018.91;5093520;28;20181;-68
2021/12/30 07:38:50;;;;;;;3.43;3.07;;;;;;;6.71;nan;-24004.16;5091736;28;20185;-68
2021/12/30 07:41:17;;;;;;;3.10;2.80;;;;;;;6.69;nan;-24003.72;5091637;28;20189;-68
2021/12/30 07:43:42;;;;;;;4.90;3.53;;;;;;;6.80;nan;-24006.72;5093346;28;20193;-68
2021/12/30 07:46:09;;;;;;;4.03;3.07;;;;;;;7.14;nan;-24016.34;5094453;28;20287;-68
2021/12/30 07:48:35;;;;;;;3.07;2.77;;;;;;;6.97;nan;-24011.53;5093485;28;20189;-67
2021/12/30 07:51:01;;;;;;;4.17;3.00;;;;;;;6.65;nan;-24002.72;5091907;28;20232;-68
2021/12/30 07:53:27;;;;;;;4.40;3.17;;;;;;;7.05;nan;-24013.94;5094285;28;20185;-68
2021/12/30 07:55:52;;;;;;;4.70;3.53;;;;;;;6.80;nan;-24006.84;5093631;28;20204;-69
2021/12/30 07:58:18;;;;;;;4.80;3.50;;;;;;;6.83;nan;-24007.56;5093187;28;20181;-69
2021/12/30 08:00:43;;;;;;;4.67;3.80;;;;;;;7.39;nan;-24023.31;5073726;28;20229;-69
2021/12/30 08:03:09;;;;;;;5.80;4.50;;;;;;;6.98;nan;-24011.81;5090189;28;20199;-69
2021/12/30 08:05:34;;;;;;;8.63;5.43;;;;;;;7.35;nan;-24022.16;5091165;28;20524;-68
2021/12/30 08:08:00;;;;;;;5.67;4.40;;;;;;;7.69;nan;-24031.66;5092446;28;20274;-69
2021/12/30 08:10:26;;;;;;;4.30;3.63;;;;;;;7.61;nan;-24029.41;5093045;28;20264;-68
2021/12/30 08:12:54;;;;;;;4.77;3.80;;;;;;;7.48;nan;-24026.00;5093007;28;20181;-69
2021/12/30 08:15:19;;;;;;;5.50;3.53;;;;;;;7.88;nan;-24037.03;5092098;28;20519;-68
2021/12/30 08:17:46;;;;;;;6.43;3.80;;;;;;;7.97;nan;-24039.72;5091299;28;20193;-69
2021/12/30 08:20:13;;;;;;;4.63;3.37;;;;;;;7.64;nan;-24030.25;5090174;28;20235;-68
2021/12/30 08:22:39;;;;;;;3.87;3.20;;;;;;;7.98;nan;-24040.03;5075485;28;20205;-68
2021/12/30 08:25:06;;;;;;;4.30;3.07;;;;;;;7.82;nan;-24035.47;5093471;28;20224;-68
2021/12/30 08:27:32;;;;;;;5.07;3.53;;;;;;;8.08;nan;-24042.56;5093316;28;20260;-68
2021/12/30 08:29:58;;;;;;;8.10;3.90;;;;;;;8.01;nan;-24040.72;5075615;28;20265;-68
2021/12/30 08:32:23;;;;;;;4.43;3.20;;;;;;;8.23;nan;-24046.81;5093163;28;20625;-68
2021/12/30 08:34:49;;;;;;;6.90;3.23;;;;;;;8.31;nan;-24049.09;5089849;28;20177;-68
2021/12/30 08:37:16;;;;;;;4.43;3.70;;;;;;;8.20;nan;-24046.09;5093521;28;20185;-68
2021/12/30 08:39:42;;;;;;;4.07;3.23;;;;;;;7.81;nan;-24035.22;5093379;28;20266;-69
2021/12/30 08:42:26;;;;;;;4.73;3.00;;;;;;;7.89;nan;-24037.47;5093264;28;20173;-68
2021/12/30 08:44:54;;;;;;;6.20;3.00;;;;;;;7.95;nan;-24039.03;5092933;28;20538;-68
2021/12/30 08:47:19;;;;;;;8.50;3.47;;;;;;;8.22;nan;-24046.53;5090522;28;20209;-68
2021/12/30 08:49:46;;;;;;;4.47;3.07;;;;;;;8.12;nan;-24043.84;5091403;28;20317;-68
2021/12/30 08:52:17;;;;;;;4.97;3.77;;;;;;;7.89;nan;-24037.47;5093691;28;20636;-68
2021/12/30 08:54:44;;;;;;;6.87;4.50;;;;;;;7.74;nan;-24033.22;5092994;28;20177;-68
2021/12/30 08:57:10;;;;;;;7.53;3.90;;;;;;;7.85;nan;-24036.34;5073858;28;20651;-67
2021/12/30 08:59:36;;;;;;;6.70;4.13;;;;;;;7.94;nan;-24038.88;5092521;28;20319;-68
2021/12/30 09:02:05;;;;;;;7.30;4.20;;;;;;;7.09;nan;-24015.06;5092800;28;20272;-68
2021/12/30 09:04:30;;;;;;;5.37;3.67;;;;;;;7.49;nan;-24026.13;5092449;28;20183;-68
2021/12/30 09:06:56;;;;;;;5.57;3.47;;;;;;;7.96;nan;-24039.31;5092382;28;20263;-69
2021/12/30 09:09:21;;;;;;;7.80;3.40;;;;;;;8.08;nan;-24042.56;5092727;28;20181;-68
2021/12/30 09:11:47;;;;;;;4.93;3.23;;;;;;;8.05;nan;-24041.72;5092567;28;20608;-69
2021/12/30 09:14:13;;;;;;;6.17;3.17;;;;;;;7.37;nan;-24022.88;5092974;28;20173;-70
2021/12/30 09:16:43;;;;;;;4.00;3.23;;;;;;;7.85;nan;-24036.34;5092770;28;20252;-69
2021/12/30 09:19:09;;;;;;;3.60;3.03;;;;;;;8.43;nan;-24052.63;5092423;28;20224;-69
2021/12/30 09:21:39;;;;;;;3.30;2.60;;;;;;;8.05;nan;-24041.84;5092450;28;20177;-70
2021/12/30 09:24:06;;;;;;;3.10;2.70;;;;;;;8.19;nan;-24045.81;5092241;28;20189;-70
2021/12/30 09:26:32;;;;;;;4.17;2.80;;;;;;;8.04;nan;-24041.44;5092541;28;20264;-70
2021/12/30 09:28:57;;;;;;;4.33;3.10;;;;;;;8.52;nan;-24055.03;5092492;28;20174;-70
2021/12/30 09:31:23;;;;;;;4.85;3.05;;;;;;;8.34;nan;-24049.94;5074177;28;20173;-68
2021/12/30 09:33:48;;;;;;;4.90;3.23;;;;;;;8.33;nan;-24049.66;5092469;28;20259;-68
2021/12/30 09:36:14;;;;;;;6.33;3.43;;;;;;;8.57;nan;-24056.44;5092547;28;20181;-68
2021/12/30 09:38:39;;;;;;;4.17;3.30;;;;;;;8.75;nan;-24061.41;5092551;28;20186;-69
2021/12/30 09:41:04;;;;;;;5.00;3.20;;;;;;;8.64;nan;-24058.44;5091547;28;20312;-70
2021/12/30 09:43:30;;;;;;;3.97;3.03;;;;;;;8.47;nan;-24053.63;5074004;28;20730;-68
2021/12/30 09:45:56;;;;;;;4.15;2.90;;;;;;;8.06;nan;-24042.16;5092006;28;20178;-69
2021/12/30 09:48:21;;;;;;;7.00;4.53;;;;;;;8.20;nan;-24046.09;5092058;28;20257;-69
2021/12/30 09:50:49;;;;;;;4.45;2.67;;;;;;;8.81;nan;-24063.25;5091021;28;20233;-69
2021/12/30 09:53:20;;;;;;;6.07;3.08;;;;;;;8.42;nan;-24052.19;5071598;28;20190;-68
2021/12/30 09:55:46;;;;;;;4.77;2.83;;;;;;;8.33;nan;-24049.66;5092087;28;20219;-68
2021/12/30 09:58:12;;;;;;;5.53;3.10;;;;;;;8.84;nan;-24064.09;5092095;28;20270;-68
2021/12/30 10:00:38;;;;;;;5.75;3.22;;;;;;;8.62;nan;-24057.88;5091591;28;20204;-68
2021/12/30 10:03:04;;;;;;;5.88;3.67;;;;;;;8.91;nan;-24065.78;5091840;28;20176;-69
2021/12/30 10:05:34;;;;;;;5.45;3.30;;;;;;;8.86;nan;-24064.66;5091849;28;20176;-69
2021/12/30 10:08:21;;;;;;;4.95;3.17;;;;;;;8.40;nan;-24051.78;5092440;28;20538;-69
2021/12/30 10:10:53;;;;;;;5.57;2.97;;;;;;;8.57;nan;-24056.31;5091943;28;20204;-69
2021/12/30 10:13:21;;;;;;;4.97;3.28;;;;;;;8.97;nan;-24067.47;5091915;28;20166;-69
2021/12/30 10:15:53;;;;;;;5.50;3.70;;;;;;;8.71;nan;-24060.41;5091766;28;20174;-69
2021/12/30 10:18:19;;;;;;;4.72;3.33;;;;;;;8.84;nan;-24064.09;5091862;28;20179;-69
2021/12/30 10:20:46;;;;;;;7.25;4.20;;;;;;;8.28;nan;-24048.38;5075769;28;20212;-69
2021/12/30 10:23:42;;;;;;;6.82;4.00;;;;;;;8.70;nan;-24060.13;5091719;28;20264;-69
2021/12/30 10:26:07;;;;;;;4.63;3.50;;;;;;;8.81;nan;-24063.09;5069975;28;20197;-68
2021/12/30 10:28:36;;;;;;;7.57;3.33;;;;;;;8.33;nan;-24049.78;5075768;28;20177;-68
2021/12/30 10:31:11;;;;;;;6.13;3.35;;;;;;;8.79;nan;-24062.53;5091026;28;20231;-68
2021/12/30 10:33:51;;;;;;;5.20;3.17;;;;;;;9.00;nan;-24068.47;5091718;28;20199;-69
2021/12/30 10:36:16;;;;;;;5.43;3.53;;;;;;;9.05;nan;-24069.75;5091597;28;20181;-70
2021/12/30 10:38:42;;;;;;;5.25;3.38;;;;;;;9.06;nan;-24070.16;5092009;28;20257;-69
2021/12/30 10:41:07;;;;;;;6.53;3.45;;;;;;;8.84;nan;-24063.94;5091521;28;20284;-69
2021/12/30 10:43:44;;;;;;;5.00;3.35;;;;;;;9.13;nan;-24072.16;5092323;28;20264;-69
2021/12/30 10:46:26;;;;;;;4.65;3.17;;;;;;;8.82;nan;-24063.53;5095664;28;20625;-69
2021/12/30 10:49:20;;;;;;;5.03;3.97;;;;;;;8.37;nan;-24050.78;5095111;28;20177;-69
2021/12/30 10:51:49;;;;;;;4.75;3.85;;;;;;;8.25;nan;-24047.38;5095590;28;20240;-69
2021/12/30 10:54:23;;;;;;;4.77;3.60;;;;;;;8.23;nan;-24046.97;5095332;28;20222;-69
2021/12/30 10:56:53;;;;;;;5.72;3.67;;;;;;;8.73;nan;-24060.97;5095056;28;20624;-68
2021/12/30 10:59:28;;;;;;;6.32;3.67;;;;;;;8.85;nan;-24064.22;5093684;28;20572;-69
2021/12/30 11:02:04;;;;;;;8.52;3.58;;;;;;;8.76;nan;-24061.81;5093932;28;20208;-68
2021/12/30 11:04:36;;;;;;;5.00;3.35;;;;;;;8.95;nan;-24067.06;5093523;28;20282;-68
2021/12/30 11:07:02;;;;;;;5.80;3.45;;;;;;;8.47;nan;-24053.47;5093489;28;20185;-68
2021/12/30 11:09:28;;;;;;;4.32;2.83;;;;;;;8.50;nan;-24054.31;5094471;28;20593;-68
2021/12/30 11:11:58;;;;;;;6.22;3.25;;;;;;;8.75;nan;-24061.53;5093963;28;20550;-69
2021/12/30 11:14:30;;;;;;;7.53;3.63;;;;;;;8.60;nan;-24057.28;5093939;28;20185;-69
2021/12/30 11:17:18;;;;;;;4.25;3.15;;;;;;;8.98;nan;-24067.75;5095048;28;20269;-68
2021/12/30 11:19:58;;;;;;;5.13;3.80;;;;;;;8.52;nan;-24054.88;5094257;28;20212;-69
2021/12/30 11:22:26;;;;;;;5.57;3.95;;;;;;;8.90;nan;-24065.66;5094539;28;20185;-68
2021/12/30 11:24:55;;;;;;;7.72;4.47;;;;;;;8.54;nan;-24055.59;5092341;28;20676;-68
2021/12/30 11:27:23;;;;;;;6.43;4.32;;;;;;;8.68;nan;-24059.56;5094235;28;20268;-69
2021/12/30 11:29:51;;;;;;;5.75;4.03;;;;;;;8.98;nan;-24067.75;5094477;28;20205;-68
2021/12/30 11:32:20;;;;;;;9.65;4.00;;;;;;;8.46;nan;-24053.34;5093841;28;20197;-69
2021/12/30 11:34:46;;;;;;;6.65;3.67;;;;;;;8.45;nan;-24052.91;5093218;28;20188;-69
2021/12/30 11:37:14;;;;;;;7.07;3.65;;;;;;;8.28;nan;-24048.22;5093312;28;20184;-70
2021/12/30 11:39:45;;;;;;;5.07;4.03;;;;;;;8.63;nan;-24058.00;5093009;28;20201;-69
2021/12/30 11:42:56;;;;;;;5.75;3.40;;;;;;;8.32;nan;-24049.38;5091180;28;20268;-68
2021/12/30 11:45:26;;;;;;;6.85;3.60;;;;;;;8.51;nan;-24054.75;5074768;28;20568;-68
2021/12/30 11:47:53;;;;;;;6.50;4.18;;;;;;;8.01;nan;-24040.72;5094148;28;20185;-68
2021/12/30 11:50:31;;;;;;;5.13;3.78;;;;;;;8.42;nan;-24052.19;5077910;28;20217;-68